Time;durP1;ratioP1;P1;durP2;ratioP2;P2;SDS_P1;SDS_P2;PMS_P1;PMS_P2;Temp;Humidity;BMP_temperature;BMP_pressure;BME280_temperature;BME280_humidity;BME280_pressure;Samples;Min_cycle;Max_cycle;Signal;HPM_P1;HPM_P2
2022/11/26 00:01:11;;;;;;;;;13.75;13.50;;;;;10.03;72.16;102192.56;4863653;29;45411;-60
2022/11/26 00:03:37;;;;;;;;;16.20;13.40;;;;;10.02;71.72;102199.09;4864318;29;45315;-60
2022/11/26 00:06:02;;;;;;;;;15.50;10.00;;;;;10.03;72.46;102199.91;4880415;29;45592;-60
2022/11/26 00:08:31;;;;;;;;;16.25;15.25;;;;;10.05;72.22;102200.63;4880397;29;45370;-60
2022/11/26 00:10:57;;;;;;;;;17.80;13.00;;;;;9.90;72.07;102178.50;4880500;29;45358;-61
2022/11/26 00:13:24;;;;;;;;;17.75;13.50;;;;;10.01;72.33;102208.34;4880515;29;45559;-60
2022/11/26 00:15:50;;;;;;;;;17.60;11.80;;;;;10.05;72.44;102211.59;4880279;29;45333;-60
2022/11/26 00:18:16;;;;;;;;;12.50;10.00;;;;;10.04;72.13;102210.72;4879832;29;45252;-61
2022/11/26 00:20:42;;;;;;;;;13.00;11.40;;;;;9.86;71.99;102178.00;4857325;28;45823;-60
2022/11/26 00:23:31;;;;;;;;;9.50;8.25;;;;;9.75;72.58;102168.25;4861580;29;45758;-58
2022/11/26 00:26:01;;;;;;;;;14.00;10.40;;;;;10.03;72.50;102219.13;4880242;29;46289;-60
2022/11/26 00:28:30;;;;;;;;;15.80;9.00;;;;;10.02;72.31;102221.03;4863100;29;45470;-60
2022/11/26 00:30:58;;;;;;;;;15.20;12.40;;;;;10.01;72.15;102218.44;4863712;29;45495;-61
2022/11/26 00:33:24;;;;;;;;;10.80;9.40;;;;;9.87;72.71;102203.56;4880104;29;45609;-60
2022/11/26 00:35:53;;;;;;;;;8.60;8.60;;;;;9.99;72.33;102221.34;4863119;29;45384;-60
2022/11/26 00:38:19;;;;;;;;;10.60;9.40;;;;;10.00;72.87;102225.84;4863219;29;45837;-61
2022/11/26 00:40:44;;;;;;;;;9.00;9.00;;;;;9.95;72.17;102209.03;4863194;29;45553;-59
2022/11/26 00:43:10;;;;;;;;;12.75;11.75;;;;;9.99;71.81;102210.38;4894838;29;45334;-61
2022/11/26 00:45:36;;;;;;;;;12.00;9.00;;;;;10.00;72.11;102222.22;4898519;29;45787;-58
2022/11/26 00:48:01;;;;;;;;;13.00;9.00;;;;;9.98;72.23;102224.28;4898885;29;45424;-59
2022/11/26 00:50:27;;;;;;;;;9.75;8.25;;;;;9.95;72.52;102228.22;4881509;29;45383;-59
2022/11/26 00:52:54;;;;;;;;;11.25;8.25;;;;;9.94;72.27;102222.91;4866134;29;45807;-59
2022/11/26 00:55:38;;;;;;;;;8.80;7.80;;;;;9.93;72.38;102221.19;4881531;29;45438;-59
2022/11/26 00:58:04;;;;;;;;;9.40;8.00;;;;;9.86;72.33;102215.53;4881595;29;45403;-59
2022/11/26 01:00:31;;;;;;;;;12.00;9.60;;;;;9.92;72.06;102227.72;4898414;29;45359;-59
2022/11/26 01:02:57;;;;;;;;;14.00;8.00;;;;;9.92;72.59;102228.56;4898606;29;45306;-59
2022/11/26 01:05:25;;;;;;;;;13.25;8.00;;;;;9.41;72.37;102149.19;4895817;29;45500;-58
2022/11/26 01:07:51;;;;;;;;;7.80;7.80;;;;;9.93;72.81;102227.53;4847232;29;45430;-59
2022/11/26 01:10:18;;;;;;;;;10.00;6.75;;;;;9.92;72.54;102235.94;4879714;29;45447;-59
2022/11/26 01:12:44;;;;;;;;;13.60;12.80;;;;;9.87;72.20;102229.06;4879321;29;45539;-59
2022/11/26 01:15:12;;;;;;;;;9.75;8.25;;;;;9.92;72.43;102244.19;4862523;29;45565;-61
2022/11/26 01:17:38;;;;;;;;;10.20;8.60;;;;;9.89;72.73;102237.16;4879413;29;45736;-60
2022/11/26 01:20:13;;;;;;;;;9.50;9.50;;;;;9.92;72.94;102234.03;4879321;29;45640;-60
2022/11/26 01:22:38;;;;;;;;;11.80;10.20;;;;;9.92;72.97;102234.03;4875965;29;45985;-60
2022/11/26 01:25:04;;;;;;;;;13.25;13.00;;;;;9.91;72.64;102237.81;4898083;29;45787;-61
2022/11/26 01:27:29;;;;;;;;;13.75;9.00;;;;;9.33;72.75;102144.56;4880824;29;46391;-61
2022/11/26 01:29:55;;;;;;;;;16.25;12.00;;;;;9.89;72.79;102232.50;4898348;29;46007;-60
2022/11/26 01:32:20;;;;;;;;;11.00;11.00;;;;;9.89;72.43;102235.25;4898594;28;45377;-58
2022/11/26 01:34:46;;;;;;;;;13.00;11.75;;;;;9.85;72.86;102233.88;4897836;29;45357;-59
2022/11/26 01:37:13;;;;;;;;;13.25;13.25;;;;;9.88;72.70;102239.00;4897802;29;45528;-59
2022/11/26 01:39:38;;;;;;;;;12.20;9.00;;;;;9.81;72.27;102227.03;4897894;29;45323;-58
2022/11/26 01:42:19;;;;;;;;;8.75;7.75;;;;;9.82;73.32;102225.16;4898063;29;45516;-57
2022/11/26 01:44:44;;;;;;;;;12.20;9.80;;;;;9.87;72.52;102236.47;4897572;29;45479;-60
2022/11/26 01:47:24;;;;;;;;;8.00;8.00;;;;;9.85;72.13;102228.41;4897880;29;45575;-61
2022/11/26 01:50:27;;;;;;;;;9.20;7.40;;;;;9.84;72.61;102217.59;4897614;29;45430;-60
2022/11/26 01:53:01;;;;;;;;;14.80;11.00;;;;;9.84;72.35;102220.34;4897790;29;45408;-59
2022/11/26 01:55:30;;;;;;;;;17.60;14.40;;;;;9.83;72.36;102222.22;4848174;29;47488;-59
2022/11/26 01:57:55;;;;;;;;;13.00;9.40;;;;;9.81;72.17;102235.25;4879825;29;45237;-58
2022/11/26 02:00:21;;;;;;;;;13.25;12.75;;;;;9.75;72.63;102241.41;4865469;29;45201;-59
2022/11/26 02:02:46;;;;;;;;;12.00;10.75;;;;;9.71;72.30;102245.53;4882221;29;45132;-60
2022/11/26 02:05:18;;;;;;;;;16.25;15.75;;;;;9.38;72.06;102185.19;4881962;29;45721;-59
2022/11/26 02:07:44;;;;;;;;;19.60;14.40;;;;;9.62;73.50;102225.47;4865499;29;45384;-60
2022/11/26 02:10:10;;;;;;;;;15.40;14.60;;;;;9.66;72.28;102231.47;4864988;29;45385;-59
2022/11/26 02:12:36;;;;;;;;;17.50;12.75;;;;;9.59;72.12;102228.53;4849926;29;45366;-63
2022/11/26 02:15:02;;;;;;;;;21.80;13.20;;;;;9.56;72.76;102229.72;4864976;29;46419;-60
2022/11/26 02:17:38;;;;;;;;;15.75;12.25;;;;;9.56;72.58;102229.72;4864882;29;45368;-59
2022/11/26 02:20:31;;;;;;;;;14.40;13.40;;;;;9.52;72.76;102230.22;4881757;29;45484;-60
2022/11/26 02:23:15;;;;;;;;;14.20;12.60;;;;;9.39;72.81;102230.72;4882009;29;45440;-58
2022/11/26 02:25:59;;;;;;;;;17.40;13.80;;;;;9.41;72.13;102231.41;4836674;28;46376;-60
2022/11/26 02:28:40;;;;;;;;;20.60;15.20;;;;;9.36;72.95;102226.44;4864521;29;45337;-58
2022/11/26 02:31:28;;;;;;;;;15.00;13.00;;;;;9.36;73.43;102227.28;4881953;29;45373;-59
2022/11/26 02:34:32;;;;;;;;;18.60;15.00;;;;;9.31;72.89;102202.28;4881837;29;45318;-60
2022/11/26 02:37:03;;;;;;;;;18.60;15.60;;;;;9.37;72.51;102206.22;4867191;29;45452;-60
2022/11/26 02:39:28;;;;;;;;;15.80;13.20;;;;;9.28;71.95;102213.56;4849609;29;45270;-59
2022/11/26 02:41:56;;;;;;;;;14.25;14.25;;;;;9.14;73.59;102200.53;4866588;29;45512;-59
2022/11/26 02:44:23;;;;;;;;;16.20;13.60;;;;;9.19;72.41;102217.31;4900481;29;45363;-60
2022/11/26 02:46:52;;;;;;;;;18.20;14.20;;;;;9.22;73.29;102226.06;4867778;29;46956;-60
2022/11/26 02:49:19;;;;;;;;;18.20;15.20;;;;;8.72;72.02;102150.22;4881448;29;45315;-58
2022/11/26 02:51:46;;;;;;;;;18.20;16.00;;;;;9.15;72.77;102221.41;4881622;29;45485;-60
2022/11/26 02:54:12;;;;;;;;;18.80;15.60;;;;;9.21;72.89;102229.84;4864765;29;45444;-59
2022/11/26 02:56:37;;;;;;;;;19.00;16.00;;;;;9.08;72.15;102215.75;4863669;29;47979;-59
2022/11/26 02:59:04;;;;;;;;;17.00;14.00;;;;;9.05;72.80;102218.81;4848998;29;45507;-60
2022/11/26 03:01:51;;;;;;;;;15.80;13.40;;;;;9.16;72.34;102232.22;4864753;29;45297;-59
2022/11/26 03:04:23;;;;;;;;;15.80;14.20;;;;;9.08;72.60;102235.75;4880814;29;46286;-60
2022/11/26 03:06:48;;;;;;;;;17.80;14.40;;;;;9.07;72.70;102233.19;4864068;29;46985;-58
2022/11/26 03:09:17;;;;;;;;;17.00;14.25;;;;;9.05;72.63;102232.50;4864150;29;45407;-59
2022/11/26 03:11:43;;;;;;;;;17.00;13.00;;;;;8.98;72.83;102221.38;4881225;29;45269;-59
2022/11/26 03:14:08;;;;;;;;;16.40;16.20;;;;;8.78;72.40;102187.91;4864713;29;45341;-59
2022/11/26 03:16:34;;;;;;;;;14.00;14.00;;;;;9.02;72.00;102233.69;4863864;29;46481;-59
2022/11/26 03:19:00;;;;;;;;;17.50;14.75;;;;;8.91;72.64;102223.03;4880845;29;45485;-59
2022/11/26 03:21:25;;;;;;;;;15.00;15.00;;;;;8.80;73.10;102218.69;4864223;29;45419;-59
2022/11/26 03:23:50;;;;;;;;;17.50;15.25;;;;;8.28;73.35;102131.00;4881213;29;45418;-59
2022/11/26 03:26:16;;;;;;;;;18.75;17.75;;;;;8.92;73.38;102231.06;4875853;28;46409;-60
2022/11/26 03:28:41;;;;;;;;;18.50;16.50;;;;;8.85;73.47;102230.03;4867313;29;45483;-59
2022/11/26 03:31:07;;;;;;;;;21.75;19.75;;;;;8.84;73.03;102231.03;4880980;29;45412;-59
2022/11/26 03:33:32;;;;;;;;;18.25;14.50;;;;;8.75;73.02;102219.19;4863809;29;45418;-59
2022/11/26 03:35:58;;;;;;;;;20.25;18.25;;;;;8.83;73.00;102229.34;4880675;29;46066;-60
2022/11/26 03:38:23;;;;;;;;;26.75;16.75;;;;;8.78;73.03;102220.75;4880492;29;45530;-58
2022/11/26 03:40:57;;;;;;;;;22.75;17.00;;;;;8.78;72.84;102221.63;4880713;29;45328;-58
2022/11/26 03:43:22;;;;;;;;;22.00;19.80;;;;;8.86;72.47;102234.47;4881827;29;45342;-61
2022/11/26 03:45:48;;;;;;;;;26.00;21.50;;;;;8.81;73.04;102229.50;4863756;29;45408;-59
2022/11/26 03:48:13;;;;;;;;;23.00;18.00;;;;;8.88;72.26;102234.31;4880361;29;45430;-59
2022/11/26 03:50:39;;;;;;;;;14.75;14.00;;;;;8.90;72.51;102235.00;4880723;29;45780;-59
2022/11/26 03:53:04;;;;;;;;;16.75;16.75;;;;;8.88;72.48;102231.56;4880935;29;45296;-58
2022/11/26 03:55:30;;;;;;;;;18.50;16.25;;;;;8.72;72.55;102210.44;4880632;29;45359;-59
2022/11/26 03:57:55;;;;;;;;;17.25;16.00;;;;;8.84;72.58;102238.38;4880429;29;45243;-58
2022/11/26 04:00:21;;;;;;;;;19.50;13.25;;;;;8.58;73.36;102201.81;4880450;29;45222;-60
2022/11/26 04:02:46;;;;;;;;;22.25;16.25;;;;;8.88;72.94;102239.78;4863761;29;45264;-58
2022/11/26 04:05:12;;;;;;;;;24.75;22.00;;;;;8.86;72.96;102233.63;4863243;29;46255;-57
2022/11/26 04:07:38;;;;;;;;;20.50;16.75;;;;;8.64;72.20;102203.91;4880112;29;45248;-57
2022/11/26 04:10:04;;;;;;;;;18.25;17.50;;;;;8.83;72.79;102245.75;4863303;29;45363;-59
2022/11/26 04:12:29;;;;;;;;;19.80;17.60;;;;;8.81;72.53;102240.44;4880378;29;45331;-58
2022/11/26 04:14:55;;;;;;;;;20.00;16.75;;;;;8.84;73.13;102246.59;4879800;29;46730;-59
2022/11/26 04:17:20;;;;;;;;;21.00;14.50;;;;;8.59;72.58;102225.44;4879186;29;45447;-59
2022/11/26 04:19:46;;;;;;;;;23.00;18.00;;;;;8.64;72.68;102257.81;4880356;29;45395;-59
2022/11/26 04:22:11;;;;;;;;;24.75;20.00;;;;;8.62;73.05;102244.28;4880124;29;45464;-59
2022/11/26 04:24:37;;;;;;;;;22.25;18.50;;;;;8.73;73.75;102245.88;4879993;29;46847;-59
2022/11/26 04:27:02;;;;;;;;;18.50;15.75;;;;;8.75;73.46;102241.09;4852187;28;45661;-60
2022/11/26 04:29:28;;;;;;;;;22.50;22.00;;;;;8.72;73.09;102240.56;4863437;29;45424;-59
2022/11/26 04:31:53;;;;;;;;;20.25;19.00;;;;;8.63;73.60;102218.63;4880224;29;45459;-59
2022/11/26 04:34:21;;;;;;;;;25.75;18.50;;;;;8.68;73.22;102238.16;4863025;29;46071;-59
2022/11/26 04:36:47;;;;;;;;;24.60;17.80;;;;;8.62;73.06;102233.34;4880148;29;45396;-59
2022/11/26 04:39:12;;;;;;;;;22.50;19.25;;;;;8.64;73.39;102235.91;4879867;29;45397;-59
2022/11/26 04:41:37;;;;;;;;;20.25;16.00;;;;;8.39;74.13;102192.78;4880659;29;45408;-58
2022/11/26 04:44:03;;;;;;;;;20.25;15.25;;;;;8.68;73.37;102240.03;4880535;29;45548;-59
2022/11/26 04:46:29;;;;;;;;;22.50;18.00;;;;;8.74;73.51;102246.72;4898845;29;45938;-59
2022/11/26 04:48:54;;;;;;;;;21.25;18.00;;;;;8.78;73.24;102250.88;4887257;29;45595;-59
2022/11/26 04:51:20;;;;;;;;;21.00;18.00;;;;;8.48;73.31;102204.66;4879932;29;45576;-60
2022/11/26 04:53:45;;;;;;;;;25.50;22.25;;;;;8.72;72.37;102251.50;4879754;29;46331;-59
2022/11/26 04:56:10;;;;;;;;;26.00;18.75;;;;;8.63;72.96;102247.88;4879730;29;45971;-59
2022/11/26 04:58:36;;;;;;;;;22.00;18.00;;;;;8.57;73.38;102235.69;4880016;29;45460;-59
2022/11/26 05:01:01;;;;;;;;;19.00;17.00;;;;;8.53;73.55;102231.56;4880324;29;45545;-59
2022/11/26 05:03:27;;;;;;;;;26.75;19.75;;;;;8.28;73.01;102201.28;4879464;29;45779;-60
2022/11/26 05:05:52;;;;;;;;;23.75;19.75;;;;;8.51;73.82;102258.19;4862866;29;45391;-59
2022/11/26 05:08:18;;;;;;;;;18.50;18.00;;;;;8.49;73.53;102258.34;4862861;29;45455;-59
2022/11/26 05:10:43;;;;;;;;;22.75;18.75;;;;;8.52;73.57;102266.28;4863280;29;45474;-57
2022/11/26 05:13:09;;;;;;;;;20.75;18.50;;;;;8.23;73.25;102220.06;4879863;29;46493;-59
2022/11/26 05:15:34;;;;;;;;;24.75;21.75;;;;;8.47;73.22;102265.00;4879556;29;45290;-57
2022/11/26 05:18:00;;;;;;;;;20.50;19.25;;;;;8.47;73.93;102267.75;4879737;29;45816;-58
2022/11/26 05:20:25;;;;;;;;;18.00;14.75;;;;;8.41;73.90;102264.66;4879480;29;45348;-61
2022/11/26 05:22:51;;;;;;;;;19.50;17.75;;;;;8.39;73.35;102265.81;4879642;29;45953;-59
2022/11/26 05:25:16;;;;;;;;;19.00;17.25;;;;;7.56;73.27;102132.06;4879440;29;45425;-59
2022/11/26 05:27:42;;;;;;;;;21.00;18.75;;;;;8.48;73.40;102278.53;4846757;29;45394;-59
2022/11/26 05:30:08;;;;;;;;;18.75;17.50;;;;;8.50;73.02;102273.75;4897228;29;45564;-60
2022/11/26 05:32:33;;;;;;;;;31.60;20.60;;;;;8.44;72.61;102279.03;4862456;29;46267;-60
2022/11/26 05:34:59;;;;;;;;;22.50;19.25;;;;;8.23;72.60;102241.94;4879455;29;45320;-60
2022/11/26 05:37:24;;;;;;;;;22.50;15.25;;;;;8.51;72.74;102282.84;4879666;29;45513;-60
2022/11/26 05:39:50;;;;;;;;;21.75;19.00;;;;;8.53;72.87;102280.81;4879323;29;45288;-60
2022/11/26 05:42:15;;;;;;;;;19.00;17.50;;;;;8.45;73.18;102261.56;4863545;29;48084;-60
2022/11/26 05:44:41;;;;;;;;;22.00;18.25;;;;;8.48;72.88;102273.06;4897606;29;45370;-60
2022/11/26 05:47:06;;;;;;;;;19.25;15.50;;;;;8.25;72.58;102240.78;4898183;29;45413;-60
2022/11/26 05:49:32;;;;;;;;;23.00;21.25;;;;;8.51;72.04;102282.84;4880431;29;45413;-60
2022/11/26 05:51:57;;;;;;;;;21.25;17.50;;;;;8.52;72.62;102290.06;4897864;29;46281;-59
2022/11/26 05:54:23;;;;;;;;;23.75;19.25;;;;;8.53;72.11;102289.03;4898088;29;45436;-60
2022/11/26 05:56:48;;;;;;;;;24.00;20.50;;;;;8.32;72.11;102251.06;4897848;29;45458;-61
2022/11/26 05:59:14;;;;;;;;;23.25;19.00;;;;;8.32;72.37;102270.22;4881133;29;45447;-60
2022/11/26 06:01:39;;;;;;;;;19.25;19.25;;;;;8.43;72.30;102297.31;4897428;29;45999;-61
2022/11/26 06:04:05;;;;;;;;;29.00;24.50;;;;;8.40;73.06;102295.75;4897838;29;45398;-60
2022/11/26 06:06:30;;;;;;;;;24.25;19.25;;;;;8.43;72.70;102304.66;4897789;29;45406;-60
2022/11/26 06:08:56;;;;;;;;;28.75;23.75;;;;;8.44;72.95;102301.78;4897905;29;45318;-60
2022/11/26 06:11:21;;;;;;;;;26.75;21.75;;;;;8.48;73.14;102313.25;4897639;29;45567;-59
2022/11/26 06:13:47;;;;;;;;;22.00;18.50;;;;;8.53;72.27;102325.47;4893325;29;45440;-61
2022/11/26 06:16:12;;;;;;;;;23.25;19.50;;;;;8.41;72.99;102308.44;4878211;29;45527;-60
2022/11/26 06:18:38;;;;;;;;;22.50;18.75;;;;;8.44;72.57;102314.59;4862053;29;45394;-59
2022/11/26 06:21:04;;;;;;;;;22.75;18.75;;;;;8.57;72.13;102342.44;4845917;29;46337;-59
2022/11/26 06:23:31;;;;;;;;;20.20;17.60;;;;;8.60;72.53;102347.56;4878632;29;45463;-57
2022/11/26 06:25:56;;;;;;;;;26.00;20.00;;;;;7.73;72.14;102198.66;4861703;29;45446;-57
2022/11/26 06:28:21;;;;;;;;;27.50;21.00;;;;;8.36;71.94;102291.63;4866812;28;45845;-58
2022/11/26 06:30:47;;;;;;;;;22.50;19.00;;;;;8.63;71.86;102329.97;4880212;29;46712;-61
2022/11/26 06:33:12;;;;;;;;;20.25;18.00;;;;;8.62;71.90;102307.25;4897611;29;45445;-59
2022/11/26 06:35:38;;;;;;;;;22.25;20.25;;;;;8.60;72.05;102309.25;4893994;29;45396;-59
2022/11/26 06:38:03;;;;;;;;;24.75;21.25;;;;;8.41;71.88;102304.81;4878390;29;45414;-59
2022/11/26 06:40:29;;;;;;;;;22.75;22.00;;;;;8.52;72.48;102329.22;4862508;29;46141;-59
2022/11/26 06:42:54;;;;;;;;;25.50;21.50;;;;;8.23;72.42;102292.03;4886068;29;45212;-60
2022/11/26 06:45:21;;;;;;;;;28.25;22.25;;;;;8.46;72.20;102335.31;4900584;29;45333;-60
2022/11/26 06:47:46;;;;;;;;;24.60;21.00;;;;;8.38;72.19;102329.78;4883375;29;45237;-60
2022/11/26 06:50:13;;;;;;;;;23.00;20.75;;;;;8.30;72.22;102322.34;4900150;29;46051;-60
2022/11/26 06:52:38;;;;;;;;;25.80;22.20;;;;;8.34;71.33;102344.78;4900025;29;45394;-60
2022/11/26 06:55:04;;;;;;;;;25.50;22.50;;;;;8.30;71.91;102354.31;4900102;29;45424;-60
2022/11/26 06:57:30;;;;;;;;;22.75;22.25;;;;;8.24;72.15;102347.59;4883777;29;45411;-59
2022/11/26 06:59:55;;;;;;;;;23.75;23.00;;;;;8.39;72.50;102362.44;4899960;29;47076;-61
2022/11/26 07:02:21;;;;;;;;;27.75;22.50;;;;;8.44;72.33;102364.72;4899990;29;45369;-60
2022/11/26 07:04:46;;;;;;;;;22.50;18.25;;;;;8.43;71.11;102357.50;4883378;29;45478;-60
2022/11/26 07:07:11;;;;;;;;;23.00;21.50;;;;;8.42;71.63;102342.09;4882831;29;45503;-60
2022/11/26 07:09:38;;;;;;;;;23.00;21.75;;;;;8.40;72.10;102346.88;4900151;29;45941;-60
2022/11/26 07:12:04;;;;;;;;;21.40;17.20;;;;;8.28;72.27;102347.13;4882707;29;45424;-60
2022/11/26 07:14:29;;;;;;;;;27.25;20.25;;;;;8.26;72.38;102340.09;4883353;29;45450;-59
2022/11/26 07:16:55;;;;;;;;;13.75;12.75;;;;;8.26;72.66;102340.97;4900090;29;45529;-60
2022/11/26 07:19:20;;;;;;;;;24.25;17.25;;;;;8.24;72.52;102345.75;4899561;29;45280;-60
2022/11/26 07:21:46;;;;;;;;;18.25;18.25;;;;;8.19;72.38;102345.34;4900018;29;45345;-60
2022/11/26 07:24:11;;;;;;;;;23.00;20.00;;;;;8.31;72.57;102361.53;4899637;29;45239;-59
2022/11/26 07:26:37;;;;;;;;;16.00;14.25;;;;;8.27;72.18;102355.47;4888953;28;45570;-57
2022/11/26 07:29:02;;;;;;;;;21.00;18.75;;;;;8.37;72.68;102371.81;4873271;29;45895;-59
2022/11/26 07:31:28;;;;;;;;;21.75;18.50;;;;;8.31;71.87;102369.72;4882720;29;46683;-58
2022/11/26 07:33:54;;;;;;;;;26.00;22.00;;;;;8.13;72.07;102337.75;4882641;29;45306;-58
2022/11/26 07:36:24;;;;;;;;;21.80;20.00;;;;;8.32;71.81;102364.09;4882801;29;45514;-58
2022/11/26 07:38:49;;;;;;;;;8.60;8.60;;;;;8.31;71.63;102367.84;4899374;29;46639;-61
2022/11/26 07:41:17;;;;;;;;;20.75;19.75;;;;;8.28;71.78;102362.69;4884768;29;45284;-59
2022/11/26 07:43:43;;;;;;;;;17.80;17.80;;;;;8.21;71.75;102354.25;4873207;29;45403;-59
2022/11/26 07:46:11;;;;;;;;;20.20;18.60;;;;;8.14;72.63;102348.56;4899870;29;45580;-60
2022/11/26 07:48:38;;;;;;;;;24.00;22.40;;;;;8.12;71.88;102347.81;4882281;29;45462;-59
2022/11/26 07:51:04;;;;;;;;;22.00;20.20;;;;;8.10;72.76;102349.00;4899227;29;45391;-60
2022/11/26 07:53:30;;;;;;;;;22.25;21.50;;;;;8.09;72.64;102350.88;4882227;29;45421;-59
2022/11/26 07:55:56;;;;;;;;;22.00;20.00;;;;;8.04;72.63;102327.75;4899941;29;45424;-59
2022/11/26 07:58:21;;;;;;;;;19.75;18.75;;;;;8.05;73.16;102338.53;4882216;29;45548;-57
2022/11/26 08:00:47;;;;;;;;;26.75;24.25;;;;;8.09;72.71;102341.81;4899638;29;45678;-56
2022/11/26 08:03:12;;;;;;;;;17.25;17.25;;;;;8.15;72.30;102343.94;4899708;29;45344;-56
2022/11/26 08:05:41;;;;;;;;;23.75;22.25;;;;;8.11;72.40;102334.34;4899194;29;45416;-55
2022/11/26 08:08:07;;;;;;;;;19.40;17.80;;;;;8.13;71.97;102344.06;4899598;29;46235;-54
2022/11/26 08:10:32;;;;;;;;;21.50;19.00;;;;;8.06;72.54;102353.06;4882196;29;45376;-53
2022/11/26 08:12:58;;;;;;;;;18.25;17.50;;;;;7.99;72.60;102356.44;4899182;29;45560;-55
2022/11/26 08:15:24;;;;;;;;;18.25;16.25;;;;;8.12;72.93;102369.72;4899666;29;45350;-56
2022/11/26 08:17:53;;;;;;;;;17.25;14.75;;;;;8.10;72.73;102376.34;4898941;29;46802;-53
2022/11/26 08:20:19;;;;;;;;;20.60;16.80;;;;;8.08;72.54;102384.72;4898941;29;45198;-55
2022/11/26 08:22:44;;;;;;;;;20.75;19.00;;;;;8.11;72.66;102383.56;4899139;29;45217;-54
2022/11/26 08:25:10;;;;;;;;;16.75;15.75;;;;;8.17;72.64;102384.81;4882205;29;45525;-54
2022/11/26 08:27:35;;;;;;;;;17.75;16.50;;;;;8.13;72.30;102367.84;4898817;29;46794;-55
2022/11/26 08:30:01;;;;;;;;;20.25;14.25;;;;;8.20;71.63;102381.75;4854100;29;46072;-53
2022/11/26 08:32:26;;;;;;;;;22.00;19.00;;;;;8.20;72.74;102382.63;4898779;29;45534;-53
2022/11/26 08:34:52;;;;;;;;;17.00;16.75;;;;;8.13;72.13;102365.13;4898936;29;45480;-52
2022/11/26 08:37:17;;;;;;;;;20.00;17.50;;;;;8.25;72.02;102376.66;4898813;29;46021;-51
2022/11/26 08:39:42;;;;;;;;;21.75;18.00;;;;;8.27;72.14;102371.91;4898873;29;45366;-56
2022/11/26 08:42:08;;;;;;;;;19.25;19.25;;;;;7.39;71.96;102226.69;4881930;29;45465;-51
2022/11/26 08:44:33;;;;;;;;;11.00;11.00;;;;;8.24;72.61;102369.47;4898978;29;45339;-54
2022/11/26 08:46:59;;;;;;;;;20.75;18.75;;;;;8.23;72.70;102360.41;4898910;29;45893;-52
2022/11/26 08:49:24;;;;;;;;;17.00;14.50;;;;;8.29;72.52;102364.41;4882363;29;45552;-49
2022/11/26 08:51:50;;;;;;;;;23.75;21.25;;;;;8.31;72.61;102373.31;4898634;29;45344;-50
2022/11/26 08:54:15;;;;;;;;;20.25;19.00;;;;;8.37;72.53;102374.53;4899410;29;45651;-54
2022/11/26 08:56:41;;;;;;;;;21.25;18.50;;;;;8.32;72.56;102371.44;4898673;29;45461;-53
2022/11/26 08:59:06;;;;;;;;;27.50;21.00;;;;;8.34;72.17;102373.00;4881790;29;45915;-54
2022/11/26 09:01:32;;;;;;;;;24.00;21.25;;;;;8.33;72.34;102378.63;4898824;29;45462;-54
2022/11/26 09:03:58;;;;;;;;;27.25;23.75;;;;;8.34;71.96;102385.81;4898126;29;45620;-52
2022/11/26 09:06:26;;;;;;;;;29.40;23.60;;;;;8.31;72.61;102378.78;4898669;29;45395;-55
2022/11/26 09:11:40;;;;;;;;;23.20;21.60;;;;;8.43;72.26;102381.28;4898886;29;45473;-50
2022/11/26 09:14:05;;;;;;;;;22.40;21.20;;;;;8.45;71.90;102385.59;4898867;29;45590;-54
2022/11/26 09:16:31;;;;;;;;;26.00;24.25;;;;;8.44;72.43;102386.63;4881611;29;45291;-54
2022/11/26 09:18:59;;;;;;;;;23.25;22.25;;;;;8.48;72.31;102398.94;4898235;29;45446;-55
2022/11/26 09:21:24;;;;;;;;;19.20;17.60;;;;;8.34;72.73;102381.22;4881731;29;45410;-55
2022/11/26 09:23:50;;;;;;;;;25.50;22.75;;;;;8.40;72.50;102388.78;4898526;29;45568;-55
2022/11/26 09:26:15;;;;;;;;;26.00;18.75;;;;;8.11;72.59;102343.38;4898408;29;45709;-53
2022/11/26 09:28:41;;;;;;;;;29.00;23.00;;;;;8.39;72.48;102381.59;4898208;29;45430;-51
2022/11/26 09:31:06;;;;;;;;;25.50;23.75;;;;;7.69;72.76;102256.53;4854391;28;46149;-58
2022/11/26 09:33:32;;;;;;;;;23.25;20.25;;;;;8.34;72.46;102367.53;4852636;29;45517;-57
2022/11/26 09:36:05;;;;;;;;;22.75;20.25;;;;;8.27;73.01;102372.75;4857489;29;45478;-55
2022/11/26 09:38:30;;;;;;;;;28.00;22.60;;;;;7.78;72.93;102291.09;4849107;29;45402;-55
2022/11/26 09:41:21;;;;;;;;;29.00;27.50;;;;;8.32;72.55;102377.75;4876259;29;45622;-55
2022/11/26 09:44:04;;;;;;;;;33.20;28.80;;;;;8.33;73.56;102375.91;4878407;29;45527;-56
2022/11/26 09:46:47;;;;;;;;;29.60;24.00;;;;;8.39;73.14;102367.91;4873169;29;45848;-58
2022/11/26 09:49:13;;;;;;;;;34.40;29.20;;;;;8.46;73.32;102379.09;4876126;29;45480;-55
2022/11/26 09:51:39;;;;;;;;;31.00;25.40;;;;;8.45;73.28;102377.38;4860511;29;45506;-57
2022/11/26 09:54:05;;;;;;;;;33.25;28.75;;;;;8.45;72.96;102377.38;4875891;29;45697;-59
2022/11/26 09:56:31;;;;;;;;;25.00;23.50;;;;;8.45;73.46;102369.16;4855640;29;46997;-58
2022/11/26 09:59:01;;;;;;;;;30.60;24.60;;;;;8.45;73.06;102360.09;4875804;29;45388;-56
2022/11/26 10:01:26;;;;;;;;;34.20;25.00;;;;;8.36;73.74;102367.38;4876752;29;45919;-56
2022/11/26 10:03:52;;;;;;;;;25.25;22.00;;;;;8.37;73.96;102374.53;4875737;29;45695;-57
2022/11/26 10:06:48;;;;;;;;;31.25;26.75;;;;;7.75;73.73;102250.44;4875408;29;48025;-58
2022/11/26 10:09:33;;;;;;;;;24.80;22.60;;;;;8.45;73.68;102366.44;4870566;29;45872;-58
2022/11/26 10:12:03;;;;;;;;;22.60;20.00;;;;;8.37;73.87;102347.19;4857737;29;45528;-59
2022/11/26 10:14:53;;;;;;;;;22.20;21.80;;;;;8.52;73.04;102367.56;4841837;29;45838;-58
2022/11/26 10:17:30;;;;;;;;;26.00;21.40;;;;;8.53;73.08;102368.38;4877042;29;45591;-54
2022/11/26 10:20:11;;;;;;;;;24.40;23.40;;;;;8.57;73.66;102371.66;4877672;29;45899;-57
2022/11/26 10:22:42;;;;;;;;;26.60;25.20;;;;;8.59;72.94;102361.44;4889545;29;45551;-59
2022/11/26 10:25:19;;;;;;;;;30.20;24.20;;;;;8.30;73.37;102316.00;4864301;29;45546;-60
2022/11/26 10:27:45;;;;;;;;;26.40;23.20;;;;;8.59;73.18;102356.81;4879319;29;46212;-59
2022/11/26 10:30:25;;;;;;;;;25.75;21.50;;;;;8.61;73.93;102362.13;4844176;28;45989;-61
2022/11/26 10:32:50;;;;;;;;;22.40;22.40;;;;;8.64;73.69;102356.34;4876317;29;45503;-58
2022/11/26 10:35:25;;;;;;;;;27.00;25.25;;;;;8.36;74.44;102304.44;4876994;29;45504;-60
2022/11/26 10:37:50;;;;;;;;;27.60;26.40;;;;;8.65;74.14;102338.91;4876692;29;45485;-60
2022/11/26 10:40:20;;;;;;;;;25.25;22.25;;;;;8.63;73.53;102340.94;4844717;29;45431;-60
2022/11/26 10:43:13;;;;;;;;;31.00;25.40;;;;;8.67;74.44;102329.53;4876854;29;45791;-62
2022/11/26 10:45:42;;;;;;;;;30.80;27.60;;;;;8.75;74.11;102333.34;4873999;29;45573;-61
2022/11/26 10:48:27;;;;;;;;;32.60;26.80;;;;;8.79;74.23;102352.00;4870635;29;46289;-59
2022/11/26 10:50:57;;;;;;;;;29.80;24.00;;;;;8.81;74.38;102338.16;4879809;29;45858;-56
2022/11/26 10:53:23;;;;;;;;;24.40;21.60;;;;;8.74;74.10;102337.94;4878615;29;45997;-58
2022/11/26 10:55:50;;;;;;;;;28.50;19.50;;;;;8.81;74.21;102344.47;4877741;29;45794;-58
2022/11/26 10:58:19;;;;;;;;;31.80;24.20;;;;;8.73;74.51;102340.81;4846928;29;46563;-59
2022/11/26 11:00:57;;;;;;;;;30.60;25.40;;;;;8.44;75.09;102303.66;4862094;29;45471;-60
2022/11/26 11:03:24;;;;;;;;;30.60;26.20;;;;;8.81;74.97;102351.84;4860163;29;45488;-60
2022/11/26 11:05:50;;;;;;;;;30.60;27.20;;;;;8.79;74.70;102349.28;4881490;29;45493;-58
2022/11/26 11:08:29;;;;;;;;;32.00;24.50;;;;;8.84;75.01;102347.91;4895572;29;45913;-58
2022/11/26 11:10:59;;;;;;;;;27.60;24.40;;;;;8.84;74.84;102354.25;4895397;29;45349;-60
2022/11/26 11:13:44;;;;;;;;;32.00;27.60;;;;;8.77;74.74;102343.09;4891577;29;45440;-56
2022/11/26 11:16:09;;;;;;;;;33.40;27.80;;;;;8.84;75.26;102343.31;4858232;29;45679;-58
2022/11/26 11:18:35;;;;;;;;;34.75;26.25;;;;;8.84;75.01;102331.47;4856021;29;45540;-61
2022/11/26 11:21:02;;;;;;;;;36.00;26.50;;;;;8.84;75.87;102337.84;4880593;29;45508;-59
2022/11/26 11:23:34;;;;;;;;;28.80;22.20;;;;;8.74;74.92;102321.50;4895428;29;45542;-57